Main page
METAR-TAF:

METAR-TAF

Airports :

Aitutaki Airport

Aitutaki, Cook Islands

latitude: 18-49-51S, longitude: 159-45-51W, elevation: 4 m

Current weather observation

The report was made 33 minutes ago, at 02:00 UTC
Wind 16 kt from the West with gusts up to 29 kt, varying between Southwest and West/Northwest
Temperature 24°C
Humidity 94%
Pressure 1004 hPa

METAR: NCAI 250200Z AUTO 26016G29KT 220V290 24/23 Q1004

Time: 16:33 (02:33 UTC)


TAF: missing

Weather observations and forecasts of more than 4000 airports (METAR and TAF reports).

The available stations are represented by yellow and red dots on the map.

Hover mouse over dot to see the name of the station.

Then click to see weather observations and forecasts.

To change the map : click on the green buttons with a black cross to zoom in, on the green button with a dash to zoom out, or on the green arrows for adjacent maps.


METAR-TAF: